Data for 03/08/2005

Time Sea-Level Adjusted Pressure Absolute Pressure Temperature Relative Humidity Dew Point   
(mb) (inHg) (mb) (inHg) (C) (F) (%) (C) (F)
00:05 1019 30.09 848 25.04 7.7 45.8 41 -4.6 23.8
00:10 1019 30.09 848 25.04 7.6 45.6 41 -4.8 23.4
00:15 1019 30.09 848 25.04 7.6 45.7 41 -4.9 23.1
00:20 1018 30.06 848 25.04 7.8 46 39 -5.4 22.2
00:25 1018 30.06 848 25.04 8.1 46.5 37 -5.8 21.6
00:30 1018 30.06 848 25.04 8.3 46.9 37 -5.7 21.8
00:35 1019 30.09 848 25.04 8.3 47 37 -5.5 22
00:40 1019 30.09 848 25.04 8.3 46.9 38 -5.3 22.4
00:45 1019 30.09 848 25.04 8.1 46.6 38 -5.3 22.4
00:50 1019 30.09 848 25.04 8 46.3 39 -5.3 22.5
00:55 1019 30.09 848 25.04 8 46.4 39 -5.1 22.8
01:00 1019 30.09 848 25.04 8.1 46.6 39 -5.1 22.9
01:05 1019 30.09 848 25.04 8.2 46.7 40 -4.7 23.5
01:10 1019 30.09 848 25.04 8.2 46.7 40 -4.6 23.7
01:15 1019 30.09 848 25.04 8.1 46.5 41 -4.4 24.1
01:20 1019 30.09 848 25.04 7.9 46.3 42 -4.1 24.6
01:25 1019 30.09 848 25.04 7.8 46.1 44 -3.8 25.2
01:30 1019 30.09 848 25.04 7.4 45.2 51 -2.2 28.1
01:35 1019 30.09 848 25.04 7.1 44.7 54 -1.7 29
01:40 1019 30.09 848 25.04 6.9 44.5 55 -1.3 29.6
01:45 1019 30.09 848 25.04 6.8 44.2 58 -0.9 30.3
01:50 1019 30.09 848 25.04 6.7 44 62 -0.2 31.7
01:55 1019 30.09 848 25.04 6.5 43.6 62 -0.4 31.4
02:00 1019 30.09 849 25.07 6.5 43.7 63 -0.1 31.9
02:05 1019 30.09 849 25.07 6.1 43.1 69 0.9 33.6
02:10 1020 30.12 849 25.07 5.6 42.2 72 1 33.9
02:15 1020 30.12 849 25.07 5.3 41.6 75 1.3 34.3
02:20 1020 30.12 849 25.07 5.2 41.4 76 1.3 34.4
02:25 1020 30.12 849 25.07 5.2 41.4 76 1.4 34.5
02:30 1020 30.12 849 25.07 5.1 41.2 77 1.4 34.6
02:35 1020 30.12 849 25.07 4.9 40.9 78 1.4 34.6
02:40 1020 30.12 849 25.07 4.9 40.8 77 1.3 34.3
02:45 1020 30.12 849 25.07 5 40.9 77 1.2 34.2
02:50 1020 30.12 850 25.1 4.8 40.7 78 1.3 34.4
02:55 1020 30.12 850 25.1 4.7 40.4 77 1 33.8
03:00 1020 30.12 850 25.1 4.9 40.8 77 1.2 34.1
03:05 1021 30.15 850 25.1 4.7 40.5 79 1.4 34.6
03:10 1020 30.12 850 25.1 4.6 40.3 78 1 33.9
03:15 1020 30.12 849 25.07 4.7 40.5 78 1.1 34
03:20 1020 30.12 850 25.1 4.4 39.9 80 1.2 34.2
03:25 1021 30.15 850 25.1 4.2 39.6 81 1.2 34.1
03:30 1021 30.15 850 25.1 4.2 39.6 79 1 33.8
03:35 1021 30.15 850 25.1 4.2 39.6 79 1 33.8
03:40 1021 30.15 850 25.1 4.2 39.5 80 1 33.8
03:45 1021 30.15 850 25.1 4.1 39.5 80 1 33.9
03:50 1021 30.15 850 25.1 4.2 39.6 80 1.1 34
03:55 1021 30.15 850 25.1 4.2 39.6 81 1.2 34.1
04:00 1021 30.15 850 25.1 4.1 39.4 80 1 33.8
04:05 1021 30.15 850 25.1 4 39.1 82 1.1 34
04:10 1021 30.15 850 25.1 3.3 38 84 0.9 33.6
04:15 1021 30.15 850 25.1 3.2 37.7 82 0.5 32.8
04:20 1021 30.15 850 25.1 3.5 38.3 81 0.6 33.1
04:25 1021 30.15 850 25.1 3.7 38.7 80 0.6 33
04:30 1021 30.15 851 25.13 3.8 38.9 80 0.6 33.1
04:35 1021 30.15 851 25.13 3.8 38.8 80 0.6 33.1
04:40 1021 30.15 851 25.13 3.6 38.4 80 0.5 33
04:45 1021 30.15 851 25.13 3.5 38.4 80 0.5 32.8
04:50 1021 30.15 851 25.13 3.6 38.5 80 0.5 32.9
04:55 1021 30.15 851 25.13 3.8 38.8 80 0.6 33
05:00 1022 30.18 851 25.13 3.6 38.5 81 0.7 33.2
05:05 1021 30.15 851 25.13 3.5 38.3 81 0.6 33.1
05:10 1022 30.18 851 25.13 3.5 38.3 81 0.6 33
05:15 1021 30.15 851 25.13 3.4 38.1 82 0.6 33.1
05:20 1022 30.18 851 25.13 3.3 37.9 82 0.5 32.8
05:25 1022 30.18 851 25.13 3.2 37.8 82 0.5 32.8
05:30 1022 30.18 851 25.13 3.2 37.8 82 0.4 32.7
05:35 1022 30.18 851 25.13 3 37.4 82 0.2 32.4
05:40 1022 30.18 851 25.13 2.8 37.1 83 0.2 32.4
05:45 1022 30.18 851 25.13 2.6 36.7 83 0 32.1
05:50 1022 30.18 851 25.13 2.6 36.6 83 -0.1 31.8
05:55 1022 30.18 851 25.13 2.4 36.4 83 -0.2 31.6
06:00 1022 30.18 851 25.13 2.4 36.2 83 -0.2 31.7
06:05 1022 30.18 851 25.13 2.2 36 84 -0.2 31.6
06:10 1022 30.18 851 25.13 2.2 36 84 -0.3 31.5
06:15 1022 30.18 851 25.13 2 35.6 84 -0.4 31.3
06:20 1022 30.18 851 25.13 1.9 35.4 84 -0.5 31.1
06:25 1022 30.18 851 25.13 1.8 35.2 85 -0.4 31.3
06:30 1022 30.18 851 25.13 1.7 35.1 85 -0.5 31.1
06:35 1022 30.18 851 25.13 1.7 35.1 84 -0.7 30.7
06:40 1022 30.18 851 25.13 1.8 35.3 83 -0.8 30.6
06:45 1022 30.18 851 25.13 1.7 35.1 83 -0.9 30.4
06:50 1022 30.18 851 25.13 1.6 34.9 83 -0.9 30.4
06:55 1022 30.18 851 25.13 1.4 34.6 85 -0.9 30.4
07:00 1022 30.18 851 25.13 1.2 34.2 86 -0.8 30.5
07:05 1022 30.18 851 25.13 1.2 34.1 87 -0.8 30.6
07:10 1022 30.18 851 25.13 1.1 34.1 87 -0.8 30.5
07:15 1022 30.18 851 25.13 1.2 34.2 87 -0.8 30.6
07:20 1022 30.18 851 25.13 1.3 34.3 86 -0.9 30.4
07:25 1022 30.18 851 25.13 1.3 34.4 85 -0.9 30.3
07:30 1022 30.18 851 25.13 1.4 34.4 84 -1 30.2
07:35 1022 30.18 851 25.13 1.3 34.4 85 -1 30.2
07:40 1022 30.18 852 25.16 1.1 34 86 -1 30.2
07:45 1022 30.18 852 25.16 1 33.8 86 -1 30.1
07:50 1022 30.18 852 25.16 1.1 34 86 -0.9 30.3
07:55 1022 30.18 852 25.16 1.2 34.1 86 -0.9 30.4
08:00 1022 30.18 852 25.16 1.2 34.2 86 -0.9 30.4
08:05 1022 30.18 852 25.16 1.5 34.7 84 -0.9 30.4
08:10 1022 30.18 852 25.16 2.2 36 80 -0.9 30.4
08:15 1022 30.18 852 25.16 2.4 36.3 81 -0.6 30.9
08:20 1022 30.18 852 25.16 2.6 36.6 79 -0.7 30.7
08:25 1022 30.18 852 25.16 2.7 36.9 78 -0.7 30.8
08:30 1022 30.18 852 25.16 2.7 36.8 79 -0.5 31
08:35 1023 30.21 852 25.16 3.1 37.6 77 -0.6 31
08:40 1023 30.21 852 25.16 3.5 38.4 74 -0.7 30.7
08:45 1022 30.18 852 25.16 4.4 39.9 70 -0.7 30.8
08:50 1023 30.21 852 25.16 5 41.1 68 -0.5 31.2
08:55 1023 30.21 852 25.16 5.2 41.4 68 -0.2 31.7
09:00 1023 30.21 852 25.16 5.6 42.1 67 -0.1 31.9
09:05 1023 30.21 852 25.16 5.6 42.1 68 0.2 32.3
09:10 1023 30.21 852 25.16 5.3 41.6 69 0.1 32.2
09:15 1023 30.21 852 25.16 5.1 41.3 68 -0.2 31.7
09:20 1023 30.21 852 25.16 5 41 71 0.1 32.3
09:25 1023 30.21 852 25.16 4.5 40 73 -0 32
09:30 1023 30.21 852 25.16 4.1 39.4 73 -0.3 31.4
09:35 1023 30.21 852 25.16 4.4 39.9 71 -0.3 31.4
09:40 1023 30.21 852 25.16 4.6 40.3 70 -0.3 31.4
09:45 1023 30.21 852 25.16 4.7 40.5 69 -0.5 31.1
09:50 1023 30.21 852 25.16 5.3 41.5 67 -0.4 31.3
09:55 1023 30.21 852 25.16 5.8 42.5 65 -0.1 31.8
10:00 1023 30.21 852 25.16 6.5 43.6 64 0.2 32.4
10:05 1023 30.21 852 25.16 7.1 44.7 63 0.5 33
10:10 1023 30.21 852 25.16 7.2 45 62 0.4 32.8
10:15 1023 30.21 852 25.16 7.6 45.7 63 0.9 33.7
10:20 1023 30.21 852 25.16 7.9 46.3 58 0.3 32.5
10:25 1023 30.21 852 25.16 8.1 46.6 59 0.5 32.9
10:30 1023 30.21 852 25.16 8.6 47.4 55 0.1 32.1
10:35 1023 30.21 852 25.16 8.8 47.9 54 0.2 32.3
10:40 1023 30.21 852 25.16 9.2 48.6 52 0 32
10:45 1023 30.21 852 25.16 9.7 49.4 49 -0.4 31.3
10:50 1023 30.21 852 25.16 10.2 50.4 49 -0.1 31.8
10:55 1023 30.21 852 25.16 10.8 51.5 43 -1.3 29.7
11:00 1023 30.21 852 25.16 11 51.7 41 -1.6 29.1
11:05 1023 30.21 852 25.16 11.3 52.3 39 -2 28.4
11:10 1023 30.21 852 25.16 11.3 52.3 40 -1.8 28.8
11:15 1023 30.21 852 25.16 11.4 52.5 40 -1.8 28.7
11:20 1023 30.21 852 25.16 12.1 53.7 36 -2.7 27.2
11:25 1023 30.21 852 25.16 12 53.6 35 -2.8 27
11:30 1023 30.21 852 25.16 12.1 53.9 35 -2.8 27
11:35 1023 30.21 852 25.16 11.8 53.3 38 -2 28.4
11:40 1023 30.21 852 25.16 11.8 53.2 35 -3.1 26.3
11:45 1023 30.21 852 25.16 11.9 53.4 34 -3.4 25.9
11:50 1022 30.18 852 25.16 12.4 54.3 33 -3.4 25.9
11:55 1022 30.18 852 25.16 12.4 54.3 33 -3.5 25.6
12:00 1022 30.18 852 25.16 12.4 54.3 33 -3.5 25.6
12:05 1022 30.18 852 25.16 12.4 54.3 32 -3.6 25.5
12:10 1022 30.18 852 25.16 12.5 54.5 32 -3.5 25.6
12:15 1022 30.18 852 25.16 12.6 54.6 32 -3.8 25.1
12:20 1022 30.18 851 25.13 13 55.4 32 -3.2 26.3
12:25 1022 30.18 851 25.13 13 55.3 32 -3.5 25.7
12:30 1022 30.18 851 25.13 13.3 55.9 31 -3.3 26.1
12:35 1022 30.18 851 25.13 12.9 55.1 33 -3 26.7
12:40 1022 30.18 851 25.13 12.5 54.5 33 -3.3 26.1
12:45 1022 30.18 851 25.13 13 55.3 31 -3.6 25.6
12:50 1022 30.18 851 25.13 13.4 56 30 -3.7 25.4
12:55 1022 30.18 851 25.13 13.6 56.5 30 -3.7 25.4
13:00 1022 30.18 851 25.13 13.8 56.9 30 -3.3 26
13:05 1022 30.18 851 25.13 13.8 56.9 30 -3.4 25.9
13:10 1022 30.18 851 25.13 14 57.2 29 -3.5 25.7
13:15 1022 30.18 851 25.13 14.2 57.5 30 -3.1 26.4
13:20 1022 30.18 851 25.13 14.2 57.6 30 -3.2 26.2
13:25 1022 30.18 851 25.13 13.5 56.3 32 -3 26.6
13:30 1022 30.18 851 25.13 13 55.4 31 -3.6 25.5
13:35 1022 30.18 851 25.13 12.8 55.1 31 -3.9 25
13:40 1021 30.15 851 25.13 13.7 56.6 30 -3.3 26
13:45 1021 30.15 851 25.13 13.2 55.7 32 -3.3 26.1
13:50 1021 30.15 851 25.13 13.4 56.1 30 -3.8 25.1
13:55 1021 30.15 850 25.1 14.4 57.9 27 -4.2 24.4
14:00 1021 30.15 850 25.1 14.5 58.2 28 -3.8 25.1
14:05 1021 30.15 850 25.1 14.2 57.6 28 -3.9 25
14:10 1021 30.15 850 25.1 13.2 55.8 30 -3.9 25
14:15 1021 30.15 850 25.1 13.7 56.6 27 -4.7 23.5
14:20 1021 30.15 850 25.1 14.3 57.7 28 -3.8 25.2
14:25 1021 30.15 850 25.1 13.8 56.8 30 -3.6 25.6
14:30 1021 30.15 850 25.1 13.3 56 30 -3.9 24.9
14:35 1021 30.15 850 25.1 13.1 55.6 31 -3.8 25.2
14:40 1021 30.15 850 25.1 12.3 54.1 32 -3.8 25.2
14:45 1021 30.15 850 25.1 13 55.3 30 -4.2 24.5
14:50 1021 30.15 850 25.1 12.8 55.1 31 -4 24.9
14:55 1021 30.15 850 25.1 12.4 54.3 32 -3.9 25
15:00 1021 30.15 850 25.1 11.9 53.4 32 -4.3 24.3
15:05 1021 30.15 850 25.1 12.1 53.7 32 -4.1 24.6
15:10 1021 30.15 850 25.1 13.1 55.5 29 -4.3 24.2
15:15 1021 30.15 850 25.1 13.9 57 28 -4.3 24.3
15:20 1021 30.15 850 25.1 13.7 56.7 27 -4.8 23.3
15:25 1021 30.15 850 25.1 13.6 56.4 29 -4.3 24.2
15:30 1021 30.15 850 25.1 13.7 56.7 27 -4.7 23.5
15:35 1021 30.15 850 25.1 13.6 56.5 29 -4.1 24.7
15:40 1021 30.15 850 25.1 13.5 56.3 29 -4.2 24.4
15:45 1021 30.15 850 25.1 13.6 56.4 29 -4.3 24.3
15:50 1021 30.15 850 25.1 13.6 56.5 28 -4.3 24.2
15:55 1021 30.15 850 25.1 13.4 56.2 29 -4.3 24.3
16:00 1021 30.15 850 25.1 13.5 56.3 29 -4.3 24.2
16:05 1021 30.15 850 25.1 13.6 56.5 29 -4.2 24.4
16:10 1021 30.15 850 25.1 13.8 56.8 29 -4.1 24.6
16:15 1021 30.15 850 25.1 13.7 56.6 27 -4.8 23.4
16:20 1021 30.15 850 25.1 13.5 56.2 28 -4.6 23.8
16:25 1021 30.15 850 25.1 13.4 56.2 28 -4.7 23.5
16:30 1021 30.15 850 25.1 13.3 56 27 -5.3 22.4
16:35 1021 30.15 850 25.1 13.3 55.9 26 -5.6 21.9
16:40 1021 30.15 850 25.1 13.3 55.9 27 -5.4 22.3
16:45 1021 30.15 850 25.1 13.1 55.5 27 -5.4 22.3
16:50 1021 30.15 850 25.1 13.1 55.6 27 -5.5 22.1
16:55 1021 30.15 850 25.1 13.2 55.7 27 -5.4 22.4
17:00 1021 30.15 850 25.1 13.2 55.7 27 -5.3 22.5
17:05 1021 30.15 850 25.1 13.1 55.7 27 -5.3 22.5
17:10 1021 30.15 850 25.1 13.1 55.6 28 -5.1 22.9
17:15 1021 30.15 851 25.13 13 55.4 27 -5.3 22.4
17:20 1021 30.15 851 25.13 13 55.5 28 -5.1 22.8
17:25 1021 30.15 851 25.13 13 55.3 26 -5.9 21.5
17:30 1021 30.15 851 25.13 12.9 55.3 26 -6 21.2
17:35 1021 30.15 851 25.13 12.8 55.1 26 -6.2 20.8
17:40 1021 30.15 851 25.13 12.8 55.1 26 -6.4 20.5
17:45 1021 30.15 851 25.13 12.8 55.1 26 -6 21.1
17:50 1021 30.15 851 25.13 12.7 54.8 27 -5.9 21.3
17:55 1021 30.15 851 25.13 12.7 54.9 27 -5.6 21.9
18:00 1021 30.15 851 25.13 12.6 54.7 27 -5.7 21.8
18:05 1021 30.15 851 25.13 12.5 54.6 28 -5.5 22.2
18:10 1021 30.15 851 25.13 12.4 54.4 29 -5.2 22.6
18:15 1021 30.15 851 25.13 12.4 54.3 29 -5.1 22.8
18:20 1021 30.15 851 25.13 12.3 54.2 29 -5 23
18:25 1021 30.15 851 25.13 12.3 54.1 30 -4.7 23.5
18:30 1022 30.18 851 25.13 12.2 54 31 -4.3 24.2
18:35 1022 30.18 851 25.13 12 53.6 32 -4.2 24.4
18:40 1022 30.18 851 25.13 11.8 53.3 33 -3.8 25.2
18:45 1022 30.18 851 25.13 11.4 52.6 33 -4.1 24.7
18:50 1022 30.18 851 25.13 11.4 52.5 33 -4.3 24.2
18:55 1022 30.18 851 25.13 11.5 52.6 33 -4.3 24.3
19:00 1022 30.18 851 25.13 11.5 52.7 33 -4.3 24.2
19:05 1022 30.18 851 25.13 11.5 52.7 34 -3.9 25
19:10 1022 30.18 851 25.13 11.1 51.9 36 -3.4 25.9
19:15 1022 30.18 851 25.13 10.7 51.2 36 -3.9 24.9
19:20 1022 30.18 851 25.13 10.6 51.1 35 -4.2 24.4
19:25 1022 30.18 851 25.13 10.7 51.3 34 -4.7 23.6
19:30 1022 30.18 851 25.13 10.7 51.3 34 -4.4 24
19:35 1022 30.18 851 25.13 10.7 51.3 34 -4.4 24.1
19:40 1022 30.18 851 25.13 10.7 51.2 33 -5.1 22.8
19:45 1022 30.18 851 25.13 10.9 51.6 33 -4.6 23.8
19:50 1022 30.18 851 25.13 10.9 51.6 33 -4.9 23.2
19:55 1022 30.18 851 25.13 10.8 51.4 33 -4.9 23.2
20:00 1022 30.18 851 25.13 10.9 51.6 31 -5.4 22.2
20:05 1022 30.18 851 25.13 11.1 52 31 -5.5 22.1
20:10 1022 30.18 851 25.13 11.4 52.5 30 -5.4 22.4
20:15 1022 30.18 851 25.13 11.4 52.6 30 -5.7 21.7
20:20 1022 30.18 851 25.13 11.4 52.6 31 -5.2 22.7
20:25 1022 30.18 851 25.13 11.1 52 31 -5.2 22.6
20:30 1022 30.18 851 25.13 11.2 52.1 31 -5.4 22.4
20:35 1022 30.18 851 25.13 11.1 52 31 -5.1 22.8
20:40 1022 30.18 851 25.13 11.1 51.9 33 -4.7 23.5
20:45 1022 30.18 851 25.13 10.8 51.5 33 -4.8 23.4
20:50 1022 30.18 851 25.13 10.4 50.8 35 -4.5 23.9
20:55 1022 30.18 851 25.13 9.9 49.8 35 -4.9 23.1
21:00 1022 30.18 851 25.13 10 50 36 -4.4 24
21:05 1022 30.18 851 25.13 9.9 49.8 37 -3.9 24.9
21:10 1022 30.18 851 25.13 9.8 49.6 38 -3.8 25.2
21:15 1022 30.18 851 25.13 9.7 49.4 37 -4.2 24.5
21:20 1022 30.18 851 25.13 9.8 49.7 38 -3.9 25
21:25 1022 30.18 851 25.13 10 49.9 35 -4.8 23.4
21:30 1022 30.18 851 25.13 10.2 50.4 34 -4.8 23.4
21:35 1022 30.18 851 25.13 10.5 50.8 35 -4.2 24.4
21:40 1022 30.18 851 25.13 10.4 50.8 35 -4.5 23.9
21:45 1022 30.18 851 25.13 10.5 50.9 34 -4.7 23.6
21:50 1022 30.18 851 25.13 10.7 51.3 33 -4.7 23.5
21:55 1022 30.18 851 25.13 10.8 51.4 33 -4.9 23.3
22:00 1022 30.18 851 25.13 10.9 51.5 33 -4.7 23.5
22:05 1022 30.18 851 25.13 10.7 51.3 34 -4.5 24
22:10 1022 30.18 851 25.13 10.5 50.9 35 -4.2 24.5
22:15 1022 30.18 851 25.13 10.7 51.2 35 -4.2 24.4
22:20 1022 30.18 851 25.13 10.8 51.5 35 -3.9 25
22:25 1022 30.18 851 25.13 10.7 51.3 37 -3.4 25.8
22:30 1022 30.18 851 25.13 10.7 51.2 37 -3.3 26
22:35 1022 30.18 852 25.16 10.7 51.2 38 -3.1 26.4
22:40 1022 30.18 852 25.16 10.5 50.8 38 -3.1 26.5
22:45 1022 30.18 852 25.16 10.3 50.6 37 -3.6 25.5
22:50 1022 30.18 852 25.16 10.3 50.6 37 -3.7 25.3
22:55 1022 30.18 852 25.16 10.3 50.5 37 -3.8 25.2
23:00 1022 30.18 852 25.16 10.3 50.6 36 -4 24.7
23:05 1022 30.18 852 25.16 10.5 51 35 -4.1 24.5
23:10 1022 30.18 852 25.16 10.7 51.2 35 -4 24.7
23:15 1022 30.18 852 25.16 10.6 51.2 36 -3.9 25
23:20 1022 30.18 852 25.16 10.4 50.7 37 -3.6 25.5
23:25 1022 30.18 852 25.16 10.1 50.2 38 -3.5 25.7
23:30 1023 30.21 852 25.16 10 50.1 37 -3.8 25.1
23:35 1023 30.21 852 25.16 10.1 50.3 37 -3.8 25.2
23:40 1023 30.21 852 25.16 10 50 37 -4 24.9
23:45 1023 30.21 852 25.16 9.9 49.9 36 -4.3 24.3
23:50 1023 30.21 852 25.16 9.8 49.6 37 -4.2 24.4
23:55 1023 30.21 852 25.16 9.5 49.1 36 -4.7 23.5
24:00 1023 30.21 852 25.16 9.7 49.4 35 -5.1 22.9